Сокол

Карта отелей и гостиниц, располагающихся рядом с аэропортом Сокол :

Сокол
Магадан
Магаданская область 59° 54' 39.5388" N, 150° 43' 13.6812" E
Код аэродрома ИКАО
UHMM
Код аэродрома RU
УХММ
Координаты
N59.91098° E150.72047°
Превышение над уровнем моря
175
Основная полоса
10/28
Курс магнитный
103,8/283,8
Длина основной ВПП
3460
Ширина основной ВПП
60
Покрытие основной ВПП
Твёрдое (бетон)
Освещение ВПП
Постоянное
Тип: 
Аэродром
Класс аэродрома: 
Международный
Принадлежность: 
ГА
Статус: 
Действующий
Сайт: 
http://airport-magadan.ru/
E-mail аэродрома: 
airport-magadan@mail.ru
Страна: 
Россия
Регион: 
Магаданская область
Город: 
Магадан
Дополнительная информация: 
Оператор: ОАО «Аэропорт Магадан». Управление: Северо-Восточное МТУ ВТ ФАВТ (Росавиации). Военный индекс: ЬХММ/XHMM.
Схемы аэропортов: 
Погода: 

Авиационная погода в аэропорту Сокол

Регион: 
Погода METAR: 
UHMM 262100Z 34004MPS 9999 BKN049 M19/M27 Q1021 R10/81//60 RMK QFE751 R28/12001MPS
Время наблюдения
2021-02-26T21:00:00Z
Температура C
-19.0
Точка росы
-27.0
Направление ветра
340
Скорость ветра (узлы)
8
Метео видимость
6.21
Явления погоды
Условия полета
VFR
Аэропорт подробнее: 

Найти трансфер

С помощью этой формы Вы можете найти трансфер из аэропорта Сокол в город, аэропорт или вокзал:

Карта места

Javascript is required to view this map.

Погода в аэропортах:

Авиационная погода в Ульяновске

Регион: 
Погода METAR: 
UWLW 262100Z 17009MPS 1800 R20/P2000N SN BLSN OVC007 M10/M12 Q0998 R20/494030 NOSIG RMK QFE743
Время наблюдения
2021-02-26T21:00:00Z
Температура C
-10.0
Точка росы
-12.0
Направление ветра
170
Скорость ветра (узлы)
17
Метео видимость
1.12
Явления погоды
SN BLSN
Условия полета
IFR
Аэропорт подробнее: 

Авиационная погода в Бресте

Регион: 
Погода METAR: 
UMBB 260900Z 28005MPS 5000 BR NSC 09/05 Q1022 R29/190060 NOSIG
Время наблюдения
2021-02-26T09:00:00Z
Температура C
9.0
Точка росы
5.0
Направление ветра
280
Скорость ветра (узлы)
10
Метео видимость
3.11
Явления погоды
BR
Условия полета
MVFR
Аэропорт подробнее: 

Авиационная погода в Актау

Регион: 
Погода METAR: 
UATE 262030Z 00000MPS 1700 R30/P2000D -DZ BR OVC005 00/M00 Q1021 R30/1///65 NOSIG RMK QBB150 QFE764/1019
Время наблюдения
2021-02-26T20:30:00Z
Температура C
0.0
Точка росы
0.0
Направление ветра
0
Скорость ветра (узлы)
0
Метео видимость
1.06
Явления погоды
-DZ BR
Условия полета
IFR
Аэропорт подробнее: 

Авиационная погода в Архангельске

Регион: 
Погода METAR: 
ULAA 262030Z 16002MPS 110V210 5000 -SHSN BKN007CB BKN023 M11/M14 Q1004 R08/490538 NOSIG RMK QFE752/1002
Время наблюдения
2021-02-26T20:30:00Z
Температура C
-11.0
Точка росы
-14.0
Направление ветра
160
Скорость ветра (узлы)
4
Метео видимость
3.11
Явления погоды
-SHSN
Условия полета
IFR
Аэропорт подробнее: